sensor_id;sensor_type;location;lat;lon;timestamp;pressure;altitude;pressure_sealevel;temperature;humidity
28588;BME280;15787;49.662;10.162;2024-03-06T00:00:28;99155.00;;;7.83;100.00
28588;BME280;15787;49.662;10.162;2024-03-06T00:03:05;99159.00;;;7.82;100.00
28588;BME280;15787;49.662;10.162;2024-03-06T00:05:39;99159.44;;;7.77;100.00
28588;BME280;15787;49.662;10.162;2024-03-06T00:08:12;99169.78;;;7.77;100.00
28588;BME280;15787;49.662;10.162;2024-03-06T00:10:47;99165.38;;;7.83;100.00
28588;BME280;15787;49.662;10.162;2024-03-06T00:13:20;99169.09;;;7.62;100.00
28588;BME280;15787;49.662;10.162;2024-03-06T00:15:54;99171.94;;;7.55;100.00
28588;BME280;15787;49.662;10.162;2024-03-06T00:18:27;99170.78;;;7.49;100.00
28588;BME280;15787;49.662;10.162;2024-03-06T00:21:01;99178.56;;;7.06;100.00
28588;BME280;15787;49.662;10.162;2024-03-06T00:23:34;99183.34;;;7.06;100.00
28588;BME280;15787;49.662;10.162;2024-03-06T00:26:10;99188.09;;;7.09;100.00
28588;BME280;15787;49.662;10.162;2024-03-06T00:28:45;99197.72;;;6.83;100.00
28588;BME280;15787;49.662;10.162;2024-03-06T00:31:18;99196.94;;;6.75;100.00
28588;BME280;15787;49.662;10.162;2024-03-06T00:33:51;99191.56;;;7.27;100.00
28588;BME280;15787;49.662;10.162;2024-03-06T00:36:25;99197.41;;;7.43;100.00
28588;BME280;15787;49.662;10.162;2024-03-06T00:38:58;99189.50;;;7.38;100.00
28588;BME280;15787;49.662;10.162;2024-03-06T00:41:34;99193.63;;;7.05;100.00
28588;BME280;15787;49.662;10.162;2024-03-06T00:44:07;99188.38;;;7.25;100.00
28588;BME280;15787;49.662;10.162;2024-03-06T00:46:41;99197.06;;;7.34;100.00
28588;BME280;15787;49.662;10.162;2024-03-06T00:49:14;99197.03;;;7.37;100.00
28588;BME280;15787;49.662;10.162;2024-03-06T00:51:47;99186.28;;;7.46;100.00
28588;BME280;15787;49.662;10.162;2024-03-06T00:54:21;99187.38;;;7.56;100.00
28588;BME280;15787;49.662;10.162;2024-03-06T00:56:56;99189.84;;;7.47;100.00
28588;BME280;15787;49.662;10.162;2024-03-06T00:59:31;99191.81;;;7.50;100.00
28588;BME280;15787;49.662;10.162;2024-03-06T01:02:05;99194.47;;;7.64;100.00
28588;BME280;15787;49.662;10.162;2024-03-06T01:04:39;99199.72;;;7.51;100.00
28588;BME280;15787;49.662;10.162;2024-03-06T01:07:13;99204.91;;;7.46;100.00
28588;BME280;15787;49.662;10.162;2024-03-06T01:09:46;99209.06;;;7.17;100.00
28588;BME280;15787;49.662;10.162;2024-03-06T01:12:21;99209.59;;;7.59;100.00
28588;BME280;15787;49.662;10.162;2024-03-06T01:14:54;99205.66;;;7.53;100.00
28588;BME280;15787;49.662;10.162;2024-03-06T01:17:28;99215.22;;;7.52;100.00
28588;BME280;15787;49.662;10.162;2024-03-06T01:20:01;99214.41;;;7.52;100.00
28588;BME280;15787;49.662;10.162;2024-03-06T01:22:39;99216.03;;;7.42;100.00
28588;BME280;15787;49.662;10.162;2024-03-06T01:25:12;99220.84;;;7.38;100.00
28588;BME280;15787;49.662;10.162;2024-03-06T01:27:47;99218.13;;;7.28;100.00
28588;BME280;15787;49.662;10.162;2024-03-06T01:30:21;99218.00;;;7.49;100.00
28588;BME280;15787;49.662;10.162;2024-03-06T01:32:54;99217.94;;;7.56;100.00
28588;BME280;15787;49.662;10.162;2024-03-06T01:35:27;99224.25;;;7.63;100.00
28588;BME280;15787;49.662;10.162;2024-03-06T01:38:01;99221.97;;;7.48;100.00
28588;BME280;15787;49.662;10.162;2024-03-06T01:40:35;99219.16;;;7.55;100.00
28588;BME280;15787;49.662;10.162;2024-03-06T01:43:18;99223.56;;;7.52;100.00
28588;BME280;15787;49.662;10.162;2024-03-06T01:45:52;99223.47;;;7.63;100.00
28588;BME280;15787;49.662;10.162;2024-03-06T01:48:28;99218.25;;;7.72;100.00
28588;BME280;15787;49.662;10.162;2024-03-06T01:51:02;99211.59;;;7.55;100.00
28588;BME280;15787;49.662;10.162;2024-03-06T01:53:37;99204.44;;;7.61;100.00
28588;BME280;15787;49.662;10.162;2024-03-06T01:56:12;99206.47;;;7.54;100.00
28588;BME280;15787;49.662;10.162;2024-03-06T01:58:51;99213.25;;;7.46;100.00
28588;BME280;15787;49.662;10.162;2024-03-06T02:01:28;99212.44;;;7.52;100.00
28588;BME280;15787;49.662;10.162;2024-03-06T02:04:02;99217.63;;;7.43;100.00
28588;BME280;15787;49.662;10.162;2024-03-06T02:06:38;99206.94;;;7.38;100.00
28588;BME280;15787;49.662;10.162;2024-03-06T02:09:12;99204.97;;;7.35;100.00
28588;BME280;15787;49.662;10.162;2024-03-06T02:11:46;99203.69;;;7.57;100.00
28588;BME280;15787;49.662;10.162;2024-03-06T02:14:21;99201.34;;;7.49;100.00
28588;BME280;15787;49.662;10.162;2024-03-06T02:16:55;99205.41;;;7.30;100.00
28588;BME280;15787;49.662;10.162;2024-03-06T02:19:38;99198.34;;;7.15;100.00
28588;BME280;15787;49.662;10.162;2024-03-06T02:22:13;99192.38;;;7.20;100.00
28588;BME280;15787;49.662;10.162;2024-03-06T02:24:48;99199.97;;;7.09;100.00
28588;BME280;15787;49.662;10.162;2024-03-06T02:27:21;99200.66;;;7.27;100.00
28588;BME280;15787;49.662;10.162;2024-03-06T02:29:55;99197.63;;;7.04;100.00
28588;BME280;15787;49.662;10.162;2024-03-06T02:32:28;99199.06;;;7.30;100.00
28588;BME280;15787;49.662;10.162;2024-03-06T02:35:02;99198.25;;;7.33;100.00
28588;BME280;15787;49.662;10.162;2024-03-06T02:37:42;99198.66;;;7.31;100.00
28588;BME280;15787;49.662;10.162;2024-03-06T02:40:17;99198.69;;;7.28;100.00
28588;BME280;15787;49.662;10.162;2024-03-06T02:42:50;99197.13;;;7.20;100.00
28588;BME280;15787;49.662;10.162;2024-03-06T02:45:24;99200.00;;;7.06;100.00
28588;BME280;15787;49.662;10.162;2024-03-06T02:47:57;99207.97;;;6.93;100.00
28588;BME280;15787;49.662;10.162;2024-03-06T02:50:31;99197.16;;;7.16;100.00
28588;BME280;15787;49.662;10.162;2024-03-06T02:53:06;99208.59;;;7.25;100.00
28588;BME280;15787;49.662;10.162;2024-03-06T02:55:40;99201.13;;;7.19;100.00
28588;BME280;15787;49.662;10.162;2024-03-06T02:58:13;99203.59;;;6.92;100.00
28588;BME280;15787;49.662;10.162;2024-03-06T03:00:46;99200.81;;;6.95;100.00
28588;BME280;15787;49.662;10.162;2024-03-06T03:03:21;99198.34;;;7.19;100.00
28588;BME280;15787;49.662;10.162;2024-03-06T03:05:57;99195.94;;;7.21;100.00
28588;BME280;15787;49.662;10.162;2024-03-06T03:08:32;99200.31;;;7.18;100.00
28588;BME280;15787;49.662;10.162;2024-03-06T03:11:05;99193.50;;;7.33;100.00
28588;BME280;15787;49.662;10.162;2024-03-06T03:13:40;99192.38;;;7.20;100.00
28588;BME280;15787;49.662;10.162;2024-03-06T03:16:16;99187.88;;;7.40;100.00
28588;BME280;15787;49.662;10.162;2024-03-06T03:18:50;99190.34;;;7.31;100.00
28588;BME280;15787;49.662;10.162;2024-03-06T03:21:25;99194.28;;;7.30;100.00
28588;BME280;15787;49.662;10.162;2024-03-06T03:23:59;99190.81;;;7.19;100.00
28588;BME280;15787;49.662;10.162;2024-03-06T03:26:33;99190.00;;;7.19;100.00
28588;BME280;15787;49.662;10.162;2024-03-06T03:29:06;99201.13;;;7.19;100.00
28588;BME280;15787;49.662;10.162;2024-03-06T03:31:40;99196.31;;;7.23;100.00
28588;BME280;15787;49.662;10.162;2024-03-06T03:34:14;99203.56;;;7.06;100.00
28588;BME280;15787;49.662;10.162;2024-03-06T03:36:48;99202.81;;;6.95;100.00
28588;BME280;15787;49.662;10.162;2024-03-06T03:39:23;99205.19;;;6.93;100.00
28588;BME280;15787;49.662;10.162;2024-03-06T03:41:57;99208.00;;;6.79;100.00
28588;BME280;15787;49.662;10.162;2024-03-06T03:44:30;99208.03;;;6.75;100.00
28588;BME280;15787;49.662;10.162;2024-03-06T03:47:03;99205.63;;;6.91;100.00
28588;BME280;15787;49.662;10.162;2024-03-06T03:49:37;99211.97;;;6.85;100.00
28588;BME280;15787;49.662;10.162;2024-03-06T03:52:10;99202.44;;;6.93;100.00
28588;BME280;15787;49.662;10.162;2024-03-06T03:54:45;99204.44;;;6.89;100.00
28588;BME280;15787;49.662;10.162;2024-03-06T03:57:18;99209.88;;;7.10;100.00
28588;BME280;15787;49.662;10.162;2024-03-06T03:59:51;99218.59;;;7.16;100.00
28588;BME280;15787;49.662;10.162;2024-03-06T04:02:25;99222.56;;;7.11;100.00
28588;BME280;15787;49.662;10.162;2024-03-06T04:04:58;99224.13;;;7.12;100.00
28588;BME280;15787;49.662;10.162;2024-03-06T04:07:33;99226.53;;;7.14;100.00
28588;BME280;15787;49.662;10.162;2024-03-06T04:10:08;99221.78;;;7.14;100.00
28588;BME280;15787;49.662;10.162;2024-03-06T04:12:44;99227.69;;;7.20;100.00
28588;BME280;15787;49.662;10.162;2024-03-06T04:15:17;99236.50;;;7.04;100.00
28588;BME280;15787;49.662;10.162;2024-03-06T04:17:53;99233.72;;;7.00;100.00
28588;BME280;15787;49.662;10.162;2024-03-06T04:20:27;99231.78;;;6.94;100.00
28588;BME280;15787;49.662;10.162;2024-03-06T04:23:00;99234.13;;;6.99;100.00
28588;BME280;15787;49.662;10.162;2024-03-06T04:25:35;99240.03;;;7.08;100.00
28588;BME280;15787;49.662;10.162;2024-03-06T04:28:09;99236.47;;;7.11;100.00
28588;BME280;15787;49.662;10.162;2024-03-06T04:30:42;99239.63;;;7.13;100.00
28588;BME280;15787;49.662;10.162;2024-03-06T04:33:16;99253.50;;;7.17;100.00
28588;BME280;15787;49.662;10.162;2024-03-06T04:35:49;99249.16;;;7.05;100.00
28588;BME280;15787;49.662;10.162;2024-03-06T04:38:22;99249.97;;;7.09;100.00
28588;BME280;15787;49.662;10.162;2024-03-06T04:40:57;99254.31;;;7.10;100.00
28588;BME280;15787;49.662;10.162;2024-03-06T04:43:30;99253.84;;;7.29;100.00
28588;BME280;15787;49.662;10.162;2024-03-06T04:46:03;99256.19;;;7.27;100.00
28588;BME280;15787;49.662;10.162;2024-03-06T04:48:37;99256.28;;;7.17;100.00
28588;BME280;15787;49.662;10.162;2024-03-06T04:51:10;99257.84;;;7.18;100.00
28588;BME280;15787;49.662;10.162;2024-03-06T04:53:43;99263.00;;;7.12;100.00
28588;BME280;15787;49.662;10.162;2024-03-06T04:56:17;99275.31;;;7.15;100.00
28588;BME280;15787;49.662;10.162;2024-03-06T04:58:55;99275.34;;;7.11;100.00
28588;BME280;15787;49.662;10.162;2024-03-06T05:01:30;99276.94;;;7.09;100.00
28588;BME280;15787;49.662;10.162;2024-03-06T05:04:04;99280.88;;;7.11;100.00
28588;BME280;15787;49.662;10.162;2024-03-06T05:07:03;99280.09;;;7.14;100.00
28588;BME280;15787;49.662;10.162;2024-03-06T05:09:54;99284.09;;;7.06;100.00
28588;BME280;15787;49.662;10.162;2024-03-06T05:12:45;99289.22;;;7.08;100.00
28588;BME280;15787;49.662;10.162;2024-03-06T05:15:37;99278.13;;;7.11;100.00
28588;BME280;15787;49.662;10.162;2024-03-06T05:18:28;99286.81;;;7.13;100.00
28588;BME280;15787;49.662;10.162;2024-03-06T05:21:20;99284.44;;;7.15;100.00
28588;BME280;15787;49.662;10.162;2024-03-06T05:24:12;99283.97;;;7.27;100.00
28588;BME280;15787;49.662;10.162;2024-03-06T05:27:02;99286.75;;;7.27;100.00
28588;BME280;15787;49.662;10.162;2024-03-06T05:29:55;99290.06;;;6.90;100.00
28588;BME280;15787;49.662;10.162;2024-03-06T05:32:46;99288.38;;;7.18;100.00
28588;BME280;15787;49.662;10.162;2024-03-06T05:35:37;99300.75;;;7.03;100.00
28588;BME280;15787;49.662;10.162;2024-03-06T05:38:27;99302.78;;;6.81;100.00
28588;BME280;15787;49.662;10.162;2024-03-06T05:41:25;99315.84;;;6.91;100.00
28588;BME280;15787;49.662;10.162;2024-03-06T05:44:16;99314.19;;;7.15;100.00
28588;BME280;15787;49.662;10.162;2024-03-06T05:47:09;99310.63;;;7.14;100.00
28588;BME280;15787;49.662;10.162;2024-03-06T05:50:00;99322.09;;;7.23;100.00
28588;BME280;15787;49.662;10.162;2024-03-06T05:52:54;99316.53;;;7.27;100.00
28588;BME280;15787;49.662;10.162;2024-03-06T05:57:30;99320.50;;;7.29;100.00
28588;BME280;15787;49.662;10.162;2024-03-06T05:59:59;99327.31;;;7.04;100.00
28588;BME280;15787;49.662;10.162;2024-03-06T06:02:43;99328.47;;;7.13;100.00
28588;BME280;15787;49.662;10.162;2024-03-06T06:05:17;99329.69;;;7.05;100.00
28588;BME280;15787;49.662;10.162;2024-03-06T06:07:55;99324.88;;;7.27;100.00
28588;BME280;15787;49.662;10.162;2024-03-06T06:10:31;99326.06;;;7.26;100.00
28588;BME280;15787;49.662;10.162;2024-03-06T06:13:05;99329.28;;;7.14;100.00
28588;BME280;15787;49.662;10.162;2024-03-06T06:15:41;99323.72;;;7.10;100.00
28588;BME280;15787;49.662;10.162;2024-03-06T06:18:16;99331.28;;;7.06;100.00
28588;BME280;15787;49.662;10.162;2024-03-06T06:20:49;99321.78;;;6.93;100.00
28588;BME280;15787;49.662;10.162;2024-03-06T06:23:23;99330.50;;;6.95;100.00
28588;BME280;15787;49.662;10.162;2024-03-06T06:25:56;99326.19;;;6.80;100.00
28588;BME280;15787;49.662;10.162;2024-03-06T06:28:30;99336.41;;;7.18;100.00
28588;BME280;15787;49.662;10.162;2024-03-06T06:31:03;99331.22;;;7.20;100.00
28588;BME280;15787;49.662;10.162;2024-03-06T06:33:38;99331.19;;;7.31;100.00
28588;BME280;15787;49.662;10.162;2024-03-06T06:36:11;99342.38;;;7.17;100.00
28588;BME280;15787;49.662;10.162;2024-03-06T06:38:44;99340.34;;;7.17;100.00
28588;BME280;15787;49.662;10.162;2024-03-06T06:41:17;99351.47;;;7.17;100.00
28588;BME280;15787;49.662;10.162;2024-03-06T06:43:51;99353.84;;;7.15;100.00
28588;BME280;15787;49.662;10.162;2024-03-06T06:46:25;99343.19;;;7.03;100.00
28588;BME280;15787;49.662;10.162;2024-03-06T06:49:00;99347.16;;;7.09;100.00
28588;BME280;15787;49.662;10.162;2024-03-06T06:51:33;99357.44;;;7.09;100.00
28588;BME280;15787;49.662;10.162;2024-03-06T06:54:07;99363.75;;;7.20;100.00
28588;BME280;15787;49.662;10.162;2024-03-06T06:56:41;99356.63;;;7.15;100.00
28588;BME280;15787;49.662;10.162;2024-03-06T06:59:14;99358.25;;;6.95;100.00
28588;BME280;15787;49.662;10.162;2024-03-06T07:01:48;99365.41;;;7.03;100.00
28588;BME280;15787;49.662;10.162;2024-03-06T07:04:23;99365.00;;;7.08;100.00
28588;BME280;15787;49.662;10.162;2024-03-06T07:06:59;99370.56;;;6.97;100.00
28588;BME280;15787;49.662;10.162;2024-03-06T07:09:33;99367.78;;;7.01;100.00
28588;BME280;15787;49.662;10.162;2024-03-06T07:12:06;99372.94;;;7.03;100.00
28588;BME280;15787;49.662;10.162;2024-03-06T07:14:40;99375.22;;;7.32;100.00
28588;BME280;15787;49.662;10.162;2024-03-06T07:17:18;99375.69;;;7.17;100.00
28588;BME280;15787;49.662;10.162;2024-03-06T07:20:09;99373.28;;;7.26;100.00
28588;BME280;15787;49.662;10.162;2024-03-06T07:22:43;99368.50;;;7.33;100.00
28588;BME280;15787;49.662;10.162;2024-03-06T07:25:18;99369.75;;;7.11;100.00
28588;BME280;15787;49.662;10.162;2024-03-06T07:27:54;99373.28;;;7.19;100.00
28588;BME280;15787;49.662;10.162;2024-03-06T07:30:28;99384.00;;;7.20;100.00
28588;BME280;15787;49.662;10.162;2024-03-06T07:33:01;99376.88;;;7.12;100.00
28588;BME280;15787;49.662;10.162;2024-03-06T07:35:37;99382.00;;;7.28;100.00
28588;BME280;15787;49.662;10.162;2024-03-06T07:38:10;99382.28;;;7.65;100.00
28588;BME280;15787;49.662;10.162;2024-03-06T07:40:43;99381.09;;;7.55;100.00
28588;BME280;15787;49.662;10.162;2024-03-06T07:43:17;99383.50;;;7.53;100.00
28588;BME280;15787;49.662;10.162;2024-03-06T07:45:50;99395.03;;;7.45;100.00
28588;BME280;15787;49.662;10.162;2024-03-06T07:48:24;99395.31;;;7.79;100.00
28588;BME280;15787;49.662;10.162;2024-03-06T07:50:58;99398.13;;;7.72;100.00
28588;BME280;15787;49.662;10.162;2024-03-06T07:53:32;99397.28;;;7.78;100.00
28588;BME280;15787;49.662;10.162;2024-03-06T07:56:07;99403.19;;;7.94;100.00
28588;BME280;15787;49.662;10.162;2024-03-06T07:58:44;99399.97;;;8.03;100.00
28588;BME280;15787;49.662;10.162;2024-03-06T08:01:17;99408.78;;;7.84;100.00
28588;BME280;15787;49.662;10.162;2024-03-06T08:03:51;99407.50;;;8.06;100.00
28588;BME280;15787;49.662;10.162;2024-03-06T08:06:26;99414.28;;;7.98;100.00
28588;BME280;15787;49.662;10.162;2024-03-06T08:09:01;99411.94;;;7.89;100.00
28588;BME280;15787;49.662;10.162;2024-03-06T08:11:34;99409.28;;;7.64;100.00
28588;BME280;15787;49.662;10.162;2024-03-06T08:14:08;99414.03;;;7.68;100.00
28588;BME280;15787;49.662;10.162;2024-03-06T08:16:42;99412.72;;;7.93;100.00
28588;BME280;15787;49.662;10.162;2024-03-06T08:19:16;99416.66;;;7.99;100.00
28588;BME280;15787;49.662;10.162;2024-03-06T08:21:50;99416.31;;;7.87;100.00
28588;BME280;15787;49.662;10.162;2024-03-06T08:24:24;99423.13;;;7.75;100.00
28588;BME280;15787;49.662;10.162;2024-03-06T08:26:57;99422.75;;;7.70;100.00
28588;BME280;15787;49.662;10.162;2024-03-06T08:29:30;99426.69;;;7.83;100.00
28588;BME280;15787;49.662;10.162;2024-03-06T08:32:04;99422.72;;;7.80;100.00
28588;BME280;15787;49.662;10.162;2024-03-06T08:34:37;99424.66;;;7.90;100.00
28588;BME280;15787;49.662;10.162;2024-03-06T08:37:13;99428.22;;;7.94;100.00
28588;BME280;15787;49.662;10.162;2024-03-06T08:39:46;99430.25;;;7.76;100.00
28588;BME280;15787;49.662;10.162;2024-03-06T08:42:21;99434.19;;;7.86;100.00
28588;BME280;15787;49.662;10.162;2024-03-06T08:44:54;99434.94;;;7.97;100.00
28588;BME280;15787;49.662;10.162;2024-03-06T08:47:29;99436.97;;;7.86;100.00
28588;BME280;15787;49.662;10.162;2024-03-06T08:50:03;99436.56;;;7.91;100.00
28588;BME280;15787;49.662;10.162;2024-03-06T08:52:38;99439.75;;;7.86;100.00
28588;BME280;15787;49.662;10.162;2024-03-06T08:55:13;99436.13;;;8.03;100.00
28588;BME280;15787;49.662;10.162;2024-03-06T08:57:47;99450.03;;;7.96;100.00
28588;BME280;15787;49.662;10.162;2024-03-06T09:00:21;99441.63;;;8.10;100.00
28588;BME280;15787;49.662;10.162;2024-03-06T09:02:55;99445.94;;;8.29;100.00
28588;BME280;15787;49.662;10.162;2024-03-06T09:05:31;99447.13;;;8.31;100.00
28588;BME280;15787;49.662;10.162;2024-03-06T09:08:06;99454.69;;;8.27;100.00
28588;BME280;15787;49.662;10.162;2024-03-06T09:10:41;99450.72;;;8.21;100.00
28588;BME280;15787;49.662;10.162;2024-03-06T09:13:15;99444.94;;;8.60;100.00
28588;BME280;15787;49.662;10.162;2024-03-06T09:15:48;99446.53;;;8.61;100.00
28588;BME280;15787;49.662;10.162;2024-03-06T09:18:21;99452.16;;;8.54;100.00
28588;BME280;15787;49.662;10.162;2024-03-06T09:20:54;99453.44;;;8.94;100.00
28588;BME280;15787;49.662;10.162;2024-03-06T09:23:30;99461.78;;;8.97;100.00
28588;BME280;15787;49.662;10.162;2024-03-06T09:26:04;99461.34;;;9.02;100.00
28588;BME280;15787;49.662;10.162;2024-03-06T09:28:39;99468.47;;;9.03;100.00
28588;BME280;15787;49.662;10.162;2024-03-06T09:31:12;99462.06;;;9.10;100.00
28588;BME280;15787;49.662;10.162;2024-03-06T09:33:46;99471.06;;;9.28;100.00
28588;BME280;15787;49.662;10.162;2024-03-06T09:36:19;99473.81;;;9.31;100.00
28588;BME280;15787;49.662;10.162;2024-03-06T09:38:53;99482.22;;;9.28;100.00
28588;BME280;15787;49.662;10.162;2024-03-06T09:41:27;99483.63;;;9.46;100.00
28588;BME280;15787;49.662;10.162;2024-03-06T09:44:01;99493.19;;;9.45;100.00
28588;BME280;15787;49.662;10.162;2024-03-06T09:46:35;99493.78;;;9.64;100.00
28588;BME280;15787;49.662;10.162;2024-03-06T09:49:08;99495.25;;;9.38;100.00
28588;BME280;15787;49.662;10.162;2024-03-06T09:51:44;99498.53;;;9.67;100.00
28588;BME280;15787;49.662;10.162;2024-03-06T09:54:20;99493.00;;;9.63;100.00
28588;BME280;15787;49.662;10.162;2024-03-06T09:56:53;99499.81;;;9.59;100.00
28588;BME280;15787;49.662;10.162;2024-03-06T09:59:27;99500.94;;;9.68;100.00
28588;BME280;15787;49.662;10.162;2024-03-06T10:02:01;99502.03;;;9.74;100.00
28588;BME280;15787;49.662;10.162;2024-03-06T10:04:35;99502.25;;;9.94;100.00
28588;BME280;15787;49.662;10.162;2024-03-06T10:07:09;99504.63;;;9.58;100.00
28588;BME280;15787;49.662;10.162;2024-03-06T10:09:47;99513.91;;;9.82;100.00
28588;BME280;15787;49.662;10.162;2024-03-06T10:12:21;99506.28;;;9.48;100.00
28588;BME280;15787;49.662;10.162;2024-03-06T10:14:55;99504.72;;;9.47;100.00
28588;BME280;15787;49.662;10.162;2024-03-06T10:17:28;99509.75;;;9.63;100.00
28588;BME280;15787;49.662;10.162;2024-03-06T10:20:16;99505.38;;;9.59;100.00
28588;BME280;15787;49.662;10.162;2024-03-06T10:22:53;99510.84;;;9.28;100.00
28588;BME280;15787;49.662;10.162;2024-03-06T10:25:31;99505.56;;;9.41;100.00
28588;BME280;15787;49.662;10.162;2024-03-06T10:28:05;99502.72;;;9.48;100.00
28588;BME280;15787;49.662;10.162;2024-03-06T10:30:41;99511.41;;;9.53;100.00
28588;BME280;15787;49.662;10.162;2024-03-06T10:33:16;99509.31;;;9.65;100.00
28588;BME280;15787;49.662;10.162;2024-03-06T10:35:51;99518.44;;;9.69;100.00
28588;BME280;15787;49.662;10.162;2024-03-06T10:38:26;99513.44;;;9.53;100.00
28588;BME280;15787;49.662;10.162;2024-03-06T10:41:03;99517.94;;;9.36;100.00
28588;BME280;15787;49.662;10.162;2024-03-06T10:43:39;99518.72;;;9.81;100.00
28588;BME280;15787;49.662;10.162;2024-03-06T10:46:19;99527.31;;;9.57;100.00
28588;BME280;15787;49.662;10.162;2024-03-06T10:48:53;99531.38;;;9.48;100.00
28588;BME280;15787;49.662;10.162;2024-03-06T10:51:33;99533.41;;;9.44;100.00
28588;BME280;15787;49.662;10.162;2024-03-06T10:54:08;99532.94;;;9.53;100.00
28588;BME280;15787;49.662;10.162;2024-03-06T10:56:43;99525.56;;;9.32;100.00
28588;BME280;15787;49.662;10.162;2024-03-06T10:59:17;99533.72;;;9.53;100.00
28588;BME280;15787;49.662;10.162;2024-03-06T11:01:53;99528.59;;;9.48;100.00
28588;BME280;15787;49.662;10.162;2024-03-06T11:04:28;99526.53;;;9.56;100.00
28588;BME280;15787;49.662;10.162;2024-03-06T11:07:05;99528.69;;;9.38;100.00
28588;BME280;15787;49.662;10.162;2024-03-06T11:09:41;99529.44;;;9.42;100.00
28588;BME280;15787;49.662;10.162;2024-03-06T11:12:34;99530.63;;;9.44;100.00
28588;BME280;15787;49.662;10.162;2024-03-06T11:15:13;99525.63;;;9.66;100.00
28588;BME280;15787;49.662;10.162;2024-03-06T11:17:46;99530.34;;;9.73;100.00
28588;BME280;15787;49.662;10.162;2024-03-06T11:20:21;99527.47;;;9.83;100.00
28588;BME280;15787;49.662;10.162;2024-03-06T11:23:04;99532.44;;;9.62;100.00
28588;BME280;15787;49.662;10.162;2024-03-06T11:25:59;99526.25;;;9.84;100.00
28588;BME280;15787;49.662;10.162;2024-03-06T11:28:37;99536.63;;;9.84;100.00
28588;BME280;15787;49.662;10.162;2024-03-06T11:31:13;99527.75;;;9.92;100.00
28588;BME280;15787;49.662;10.162;2024-03-06T11:33:56;99527.75;;;9.92;100.00
28588;BME280;15787;49.662;10.162;2024-03-06T11:36:57;99527.75;;;9.92;100.00
28588;BME280;15787;49.662;10.162;2024-03-06T11:40:14;99527.41;;;9.87;100.00
28588;BME280;15787;49.662;10.162;2024-03-06T11:43:28;99530.13;;;10.31;100.00
28588;BME280;15787;49.662;10.162;2024-03-06T11:46:41;99524.06;;;10.36;100.00
28588;BME280;15787;49.662;10.162;2024-03-06T11:49:23;99528.69;;;10.50;100.00
28588;BME280;15787;49.662;10.162;2024-03-06T11:52:35;99521.13;;;10.77;100.00
28588;BME280;15787;49.662;10.162;2024-03-06T11:55:36;99523.50;;;11.05;100.00
28588;BME280;15787;49.662;10.162;2024-03-06T11:58:09;99522.88;;;11.21;100.00
28588;BME280;15787;49.662;10.162;2024-03-06T12:00:45;99526.78;;;11.00;100.00
28588;BME280;15787;49.662;10.162;2024-03-06T12:03:22;99531.88;;;11.05;99.20
28588;BME280;15787;49.662;10.162;2024-03-06T12:05:58;99539.41;;;10.82;99.04
28588;BME280;15787;49.662;10.162;2024-03-06T12:08:40;99531.72;;;10.89;97.62
28588;BME280;15787;49.662;10.162;2024-03-06T12:11:15;99535.28;;;10.93;96.52
28588;BME280;15787;49.662;10.162;2024-03-06T12:13:52;99532.03;;;10.95;97.49
28588;BME280;15787;49.662;10.162;2024-03-06T12:16:29;99543.09;;;11.02;94.95
28588;BME280;15787;49.662;10.162;2024-03-06T12:19:07;99541.84;;;11.06;96.16
28588;BME280;15787;49.662;10.162;2024-03-06T12:21:47;99541.19;;;10.68;95.32
28588;BME280;15787;49.662;10.162;2024-03-06T12:24:21;99540.78;;;10.70;95.67
28588;BME280;15787;49.662;10.162;2024-03-06T12:26:59;99533.69;;;10.92;94.61
28588;BME280;15787;49.662;10.162;2024-03-06T12:29:36;99537.88;;;10.77;94.82
28588;BME280;15787;49.662;10.162;2024-03-06T12:32:17;99535.59;;;10.68;95.50
28588;BME280;15787;49.662;10.162;2024-03-06T12:34:57;99544.41;;;10.94;94.34
28588;BME280;15787;49.662;10.162;2024-03-06T12:37:35;99530.56;;;11.13;92.64
28588;BME280;15787;49.662;10.162;2024-03-06T12:40:10;99536.03;;;10.94;92.41
28588;BME280;15787;49.662;10.162;2024-03-06T12:42:46;99527.09;;;11.06;93.37
28588;BME280;15787;49.662;10.162;2024-03-06T12:45:23;99539.38;;;11.35;91.91
28588;BME280;15787;49.662;10.162;2024-03-06T12:47:57;99532.88;;;11.18;91.30
28588;BME280;15787;49.662;10.162;2024-03-06T12:50:34;99534.31;;;11.03;89.26
28588;BME280;15787;49.662;10.162;2024-03-06T12:53:13;99536.84;;;10.94;89.00
28588;BME280;15787;49.662;10.162;2024-03-06T12:55:48;99538.56;;;11.11;88.81
28588;BME280;15787;49.662;10.162;2024-03-06T12:58:22;99538.75;;;11.01;89.55
28588;BME280;15787;49.662;10.162;2024-03-06T13:00:58;99540.38;;;10.98;89.69
28588;BME280;15787;49.662;10.162;2024-03-06T13:03:42;99537.56;;;11.25;88.98
28588;BME280;15787;49.662;10.162;2024-03-06T13:06:18;99541.13;;;11.02;89.26
28588;BME280;15787;49.662;10.162;2024-03-06T13:08:54;99533.69;;;10.92;89.39
28588;BME280;15787;49.662;10.162;2024-03-06T13:11:29;99525.75;;;11.14;89.77
28588;BME280;15787;49.662;10.162;2024-03-06T13:14:05;99526.38;;;11.25;88.68
28588;BME280;15787;49.662;10.162;2024-03-06T13:16:39;99527.50;;;11.31;88.92
28588;BME280;15787;49.662;10.162;2024-03-06T13:19:12;99527.19;;;11.25;88.95
28588;BME280;15787;49.662;10.162;2024-03-06T13:21:47;99526.09;;;11.42;89.18
28588;BME280;15787;49.662;10.162;2024-03-06T13:24:20;99526.56;;;11.37;86.53
28588;BME280;15787;49.662;10.162;2024-03-06T13:26:54;99529.13;;;11.52;85.16
28588;BME280;15787;49.662;10.162;2024-03-06T13:29:28;99528.16;;;11.38;86.18
28588;BME280;15787;49.662;10.162;2024-03-06T13:32:01;99529.59;;;11.47;86.38
28588;BME280;15787;49.662;10.162;2024-03-06T13:34:34;99528.06;;;11.69;85.30
28588;BME280;15787;49.662;10.162;2024-03-06T13:37:09;99529.06;;;11.78;85.10
28588;BME280;15787;49.662;10.162;2024-03-06T13:39:42;99526.94;;;12.05;83.13